sensor_id;sensor_type;location;lat;lon;timestamp;P1;durP1;ratioP1;P2;durP2;ratioP2
57309;SDS011;43153;50.984;18.204;2022-12-07T00:01:19;38.60;;;18.60;;
57309;SDS011;43153;50.984;18.204;2022-12-07T00:03:48;39.60;;;18.40;;
57309;SDS011;43153;50.984;18.204;2022-12-07T00:06:17;39.10;;;15.40;;
57309;SDS011;43153;50.984;18.204;2022-12-07T00:08:46;36.70;;;16.30;;
57309;SDS011;43153;50.984;18.204;2022-12-07T00:11:15;42.90;;;18.70;;
57309;SDS011;43153;50.984;18.204;2022-12-07T00:13:46;44.00;;;18.90;;
57309;SDS011;43153;50.984;18.204;2022-12-07T00:16:16;33.30;;;16.60;;
57309;SDS011;43153;50.984;18.204;2022-12-07T00:18:43;42.00;;;18.40;;
57309;SDS011;43153;50.984;18.204;2022-12-07T00:21:16;44.90;;;19.90;;
57309;SDS011;43153;50.984;18.204;2022-12-07T00:23:46;42.70;;;20.90;;
57309;SDS011;43153;50.984;18.204;2022-12-07T00:26:21;53.70;;;24.50;;
57309;SDS011;43153;50.984;18.204;2022-12-07T00:28:52;41.80;;;18.90;;
57309;SDS011;43153;50.984;18.204;2022-12-07T00:31:22;31.50;;;15.60;;
57309;SDS011;43153;50.984;18.204;2022-12-07T00:33:50;38.30;;;16.70;;
57309;SDS011;43153;50.984;18.204;2022-12-07T00:36:22;30.10;;;14.80;;
57309;SDS011;43153;50.984;18.204;2022-12-07T00:38:50;38.30;;;16.70;;
57309;SDS011;43153;50.984;18.204;2022-12-07T00:41:19;29.90;;;14.80;;
57309;SDS011;43153;50.984;18.204;2022-12-07T00:43:47;30.50;;;14.30;;
57309;SDS011;43153;50.984;18.204;2022-12-07T00:46:15;38.30;;;16.50;;
57309;SDS011;43153;50.984;18.204;2022-12-07T00:48:49;34.00;;;14.50;;
57309;SDS011;43153;50.984;18.204;2022-12-07T00:51:22;26.30;;;12.50;;
57309;SDS011;43153;50.984;18.204;2022-12-07T00:53:53;34.80;;;15.60;;
57309;SDS011;43153;50.984;18.204;2022-12-07T00:56:24;30.20;;;13.60;;
57309;SDS011;43153;50.984;18.204;2022-12-07T00:58:56;32.10;;;15.30;;
57309;SDS011;43153;50.984;18.204;2022-12-07T01:01:26;59.30;;;25.50;;
57309;SDS011;43153;50.984;18.204;2022-12-07T01:03:55;81.40;;;33.10;;
57309;SDS011;43153;50.984;18.204;2022-12-07T01:06:28;67.90;;;29.20;;
57309;SDS011;43153;50.984;18.204;2022-12-07T01:08:55;69.00;;;33.80;;
57309;SDS011;43153;50.984;18.204;2022-12-07T01:11:22;53.20;;;28.30;;
57309;SDS011;43153;50.984;18.204;2022-12-07T01:13:51;57.20;;;24.10;;
57309;SDS011;43153;50.984;18.204;2022-12-07T01:16:18;47.10;;;19.70;;
57309;SDS011;43153;50.984;18.204;2022-12-07T01:18:47;42.90;;;19.20;;
57309;SDS011;43153;50.984;18.204;2022-12-07T01:21:19;53.50;;;26.10;;
57309;SDS011;43153;50.984;18.204;2022-12-07T01:26:21;71.60;;;30.60;;
57309;SDS011;43153;50.984;18.204;2022-12-07T01:28:50;67.60;;;33.20;;
57309;SDS011;43153;50.984;18.204;2022-12-07T01:31:20;67.00;;;31.40;;
57309;SDS011;43153;50.984;18.204;2022-12-07T01:33:50;60.40;;;28.00;;
57309;SDS011;43153;50.984;18.204;2022-12-07T01:36:22;94.70;;;34.00;;
57309;SDS011;43153;50.984;18.204;2022-12-07T01:38:50;75.00;;;31.40;;
57309;SDS011;43153;50.984;18.204;2022-12-07T01:41:24;57.00;;;28.40;;
57309;SDS011;43153;50.984;18.204;2022-12-07T01:44:11;62.70;;;29.50;;
57309;SDS011;43153;50.984;18.204;2022-12-07T01:46:48;81.70;;;31.30;;
57309;SDS011;43153;50.984;18.204;2022-12-07T01:49:37;60.80;;;27.10;;
57309;SDS011;43153;50.984;18.204;2022-12-07T01:54:58;61.10;;;20.70;;
57309;SDS011;43153;50.984;18.204;2022-12-07T01:57:32;45.80;;;19.10;;
57309;SDS011;43153;50.984;18.204;2022-12-07T02:00:03;46.90;;;20.30;;
57309;SDS011;43153;50.984;18.204;2022-12-07T02:02:34;38.10;;;18.60;;
57309;SDS011;43153;50.984;18.204;2022-12-07T02:05:05;65.40;;;24.00;;
57309;SDS011;43153;50.984;18.204;2022-12-07T02:07:32;47.00;;;20.20;;
57309;SDS011;43153;50.984;18.204;2022-12-07T02:10:19;51.90;;;22.20;;
57309;SDS011;43153;50.984;18.204;2022-12-07T02:12:49;43.10;;;20.50;;
57309;SDS011;43153;50.984;18.204;2022-12-07T02:15:18;43.40;;;20.20;;
57309;SDS011;43153;50.984;18.204;2022-12-07T02:17:54;41.60;;;18.40;;
57309;SDS011;43153;50.984;18.204;2022-12-07T02:20:44;41.90;;;17.40;;
57309;SDS011;43153;50.984;18.204;2022-12-07T02:26:23;44.40;;;19.40;;
57309;SDS011;43153;50.984;18.204;2022-12-07T02:32:05;44.80;;;19.10;;
57309;SDS011;43153;50.984;18.204;2022-12-07T02:34:42;48.60;;;18.30;;
57309;SDS011;43153;50.984;18.204;2022-12-07T02:37:19;39.80;;;18.00;;
57309;SDS011;43153;50.984;18.204;2022-12-07T02:40:27;43.80;;;18.60;;
57309;SDS011;43153;50.984;18.204;2022-12-07T02:42:50;42.00;;;15.20;;
57309;SDS011;43153;50.984;18.204;2022-12-07T02:45:21;43.50;;;17.90;;
57309;SDS011;43153;50.984;18.204;2022-12-07T02:47:55;37.20;;;16.50;;
57309;SDS011;43153;50.984;18.204;2022-12-07T02:50:26;32.40;;;15.00;;
57309;SDS011;43153;50.984;18.204;2022-12-07T02:52:55;35.60;;;15.80;;
57309;SDS011;43153;50.984;18.204;2022-12-07T02:55:27;40.30;;;15.90;;
57309;SDS011;43153;50.984;18.204;2022-12-07T03:03:39;35.50;;;14.50;;
57309;SDS011;43153;50.984;18.204;2022-12-07T03:06:28;29.60;;;11.90;;
57309;SDS011;43153;50.984;18.204;2022-12-07T03:08:59;34.90;;;14.40;;
57309;SDS011;43153;50.984;18.204;2022-12-07T03:11:47;38.00;;;16.80;;
57309;SDS011;43153;50.984;18.204;2022-12-07T03:19:38;41.40;;;16.50;;
57309;SDS011;43153;50.984;18.204;2022-12-07T03:22:07;32.60;;;16.50;;
57309;SDS011;43153;50.984;18.204;2022-12-07T03:24:42;48.10;;;20.50;;
57309;SDS011;43153;50.984;18.204;2022-12-07T03:27:13;47.00;;;19.10;;
57309;SDS011;43153;50.984;18.204;2022-12-07T03:29:44;46.80;;;20.50;;
57309;SDS011;43153;50.984;18.204;2022-12-07T03:32:16;45.80;;;20.00;;
57309;SDS011;43153;50.984;18.204;2022-12-07T03:37:40;42.20;;;17.40;;
57309;SDS011;43153;50.984;18.204;2022-12-07T03:40:34;43.00;;;17.80;;
57309;SDS011;43153;50.984;18.204;2022-12-07T03:43:08;31.50;;;14.40;;
57309;SDS011;43153;50.984;18.204;2022-12-07T03:45:38;27.40;;;12.10;;
57309;SDS011;43153;50.984;18.204;2022-12-07T03:51:14;27.10;;;11.10;;
57309;SDS011;43153;50.984;18.204;2022-12-07T03:53:48;31.90;;;13.00;;
57309;SDS011;43153;50.984;18.204;2022-12-07T03:56:20;27.60;;;11.70;;
57309;SDS011;43153;50.984;18.204;2022-12-07T04:01:22;31.50;;;11.50;;
57309;SDS011;43153;50.984;18.204;2022-12-07T04:03:52;24.70;;;10.70;;
57309;SDS011;43153;50.984;18.204;2022-12-07T04:06:23;26.40;;;10.00;;
57309;SDS011;43153;50.984;18.204;2022-12-07T04:08:53;25.00;;;10.50;;
57309;SDS011;43153;50.984;18.204;2022-12-07T04:11:20;24.20;;;10.60;;
57309;SDS011;43153;50.984;18.204;2022-12-07T04:13:49;26.10;;;10.00;;
57309;SDS011;43153;50.984;18.204;2022-12-07T04:16:33;21.30;;;9.20;;
57309;SDS011;43153;50.984;18.204;2022-12-07T04:19:04;22.50;;;10.10;;
57309;SDS011;43153;50.984;18.204;2022-12-07T04:21:30;21.70;;;8.80;;
57309;SDS011;43153;50.984;18.204;2022-12-07T04:24:00;21.50;;;9.60;;
57309;SDS011;43153;50.984;18.204;2022-12-07T04:26:30;20.80;;;7.90;;
57309;SDS011;43153;50.984;18.204;2022-12-07T04:28:58;21.50;;;9.30;;
57309;SDS011;43153;50.984;18.204;2022-12-07T04:31:30;18.00;;;7.70;;
57309;SDS011;43153;50.984;18.204;2022-12-07T04:33:58;17.70;;;7.90;;
57309;SDS011;43153;50.984;18.204;2022-12-07T04:36:24;18.80;;;7.90;;
57309;SDS011;43153;50.984;18.204;2022-12-07T04:38:52;21.40;;;8.60;;
57309;SDS011;43153;50.984;18.204;2022-12-07T04:41:29;19.80;;;8.20;;
57309;SDS011;43153;50.984;18.204;2022-12-07T04:44:05;19.30;;;8.10;;
57309;SDS011;43153;50.984;18.204;2022-12-07T04:46:34;17.80;;;8.00;;
57309;SDS011;43153;50.984;18.204;2022-12-07T04:49:04;17.50;;;8.20;;
57309;SDS011;43153;50.984;18.204;2022-12-07T04:51:35;17.80;;;7.30;;
57309;SDS011;43153;50.984;18.204;2022-12-07T04:54:07;18.20;;;7.70;;
57309;SDS011;43153;50.984;18.204;2022-12-07T04:56:33;22.60;;;8.80;;
57309;SDS011;43153;50.984;18.204;2022-12-07T04:59:06;20.40;;;9.10;;
57309;SDS011;43153;50.984;18.204;2022-12-07T05:01:38;18.80;;;7.50;;
57309;SDS011;43153;50.984;18.204;2022-12-07T05:04:04;19.60;;;7.90;;
57309;SDS011;43153;50.984;18.204;2022-12-07T05:06:32;23.00;;;8.60;;
57309;SDS011;43153;50.984;18.204;2022-12-07T05:09:07;17.90;;;7.80;;
57309;SDS011;43153;50.984;18.204;2022-12-07T05:11:36;19.20;;;9.00;;
57309;SDS011;43153;50.984;18.204;2022-12-07T05:14:10;22.40;;;10.50;;
57309;SDS011;43153;50.984;18.204;2022-12-07T05:16:42;20.60;;;9.20;;
57309;SDS011;43153;50.984;18.204;2022-12-07T05:19:10;26.40;;;12.00;;
57309;SDS011;43153;50.984;18.204;2022-12-07T05:21:39;24.90;;;12.30;;
57309;SDS011;43153;50.984;18.204;2022-12-07T05:24:07;29.00;;;14.30;;
57309;SDS011;43153;50.984;18.204;2022-12-07T05:26:44;36.60;;;17.30;;
57309;SDS011;43153;50.984;18.204;2022-12-07T05:29:14;36.00;;;17.10;;
57309;SDS011;43153;50.984;18.204;2022-12-07T05:31:46;37.60;;;16.50;;
57309;SDS011;43153;50.984;18.204;2022-12-07T05:34:14;28.30;;;14.90;;
57309;SDS011;43153;50.984;18.204;2022-12-07T05:36:41;32.30;;;16.50;;
57309;SDS011;43153;50.984;18.204;2022-12-07T05:39:09;26.00;;;14.00;;
57309;SDS011;43153;50.984;18.204;2022-12-07T05:41:41;34.70;;;13.50;;
57309;SDS011;43153;50.984;18.204;2022-12-07T05:44:31;31.40;;;13.20;;
57309;SDS011;43153;50.984;18.204;2022-12-07T05:47:06;24.30;;;10.80;;
57309;SDS011;43153;50.984;18.204;2022-12-07T05:49:32;20.80;;;10.20;;
57309;SDS011;43153;50.984;18.204;2022-12-07T05:51:59;22.20;;;9.80;;
57309;SDS011;43153;50.984;18.204;2022-12-07T05:54:25;27.50;;;12.80;;
57309;SDS011;43153;50.984;18.204;2022-12-07T05:56:51;34.20;;;17.40;;
57309;SDS011;43153;50.984;18.204;2022-12-07T05:59:19;40.10;;;19.10;;
57309;SDS011;43153;50.984;18.204;2022-12-07T06:04:24;43.00;;;18.40;;
57309;SDS011;43153;50.984;18.204;2022-12-07T06:06:53;31.50;;;12.60;;
57309;SDS011;43153;50.984;18.204;2022-12-07T06:09:20;34.80;;;14.70;;
57309;SDS011;43153;50.984;18.204;2022-12-07T06:11:50;31.10;;;14.90;;
57309;SDS011;43153;50.984;18.204;2022-12-07T06:14:38;37.60;;;17.60;;
57309;SDS011;43153;50.984;18.204;2022-12-07T06:17:09;46.50;;;22.00;;
57309;SDS011;43153;50.984;18.204;2022-12-07T06:19:36;53.10;;;24.40;;
57309;SDS011;43153;50.984;18.204;2022-12-07T06:22:02;68.00;;;27.90;;
57309;SDS011;43153;50.984;18.204;2022-12-07T06:24:30;62.30;;;29.50;;
57309;SDS011;43153;50.984;18.204;2022-12-07T06:26:58;52.00;;;22.80;;
57309;SDS011;43153;50.984;18.204;2022-12-07T06:29:23;57.40;;;26.50;;
57309;SDS011;43153;50.984;18.204;2022-12-07T06:31:49;48.60;;;24.60;;
57309;SDS011;43153;50.984;18.204;2022-12-07T06:34:18;51.10;;;22.40;;
57309;SDS011;43153;50.984;18.204;2022-12-07T06:36:46;48.40;;;24.50;;
57309;SDS011;43153;50.984;18.204;2022-12-07T06:39:17;46.60;;;19.50;;
57309;SDS011;43153;50.984;18.204;2022-12-07T06:41:44;35.60;;;16.60;;
57309;SDS011;43153;50.984;18.204;2022-12-07T06:44:17;35.90;;;15.50;;
57309;SDS011;43153;50.984;18.204;2022-12-07T06:46:43;55.00;;;20.40;;
57309;SDS011;43153;50.984;18.204;2022-12-07T06:49:09;56.10;;;27.50;;
57309;SDS011;43153;50.984;18.204;2022-12-07T06:51:39;69.90;;;28.50;;
57309;SDS011;43153;50.984;18.204;2022-12-07T06:54:10;53.00;;;25.10;;
57309;SDS011;43153;50.984;18.204;2022-12-07T06:56:43;53.40;;;23.90;;
57309;SDS011;43153;50.984;18.204;2022-12-07T06:59:09;53.20;;;23.30;;
57309;SDS011;43153;50.984;18.204;2022-12-07T07:01:42;53.60;;;27.20;;
57309;SDS011;43153;50.984;18.204;2022-12-07T07:04:07;57.60;;;27.30;;
57309;SDS011;43153;50.984;18.204;2022-12-07T07:06:33;59.30;;;24.70;;
57309;SDS011;43153;50.984;18.204;2022-12-07T07:09:03;53.00;;;20.70;;
57309;SDS011;43153;50.984;18.204;2022-12-07T07:14:02;28.90;;;11.20;;
57309;SDS011;43153;50.984;18.204;2022-12-07T07:16:29;25.10;;;11.10;;
57309;SDS011;43153;50.984;18.204;2022-12-07T07:18:57;27.20;;;10.30;;
57309;SDS011;43153;50.984;18.204;2022-12-07T07:21:23;26.30;;;12.20;;
57309;SDS011;43153;50.984;18.204;2022-12-07T07:23:51;23.30;;;10.60;;
57309;SDS011;43153;50.984;18.204;2022-12-07T07:26:20;26.40;;;11.80;;
57309;SDS011;43153;50.984;18.204;2022-12-07T07:28:45;25.10;;;12.20;;
57309;SDS011;43153;50.984;18.204;2022-12-07T07:31:11;27.00;;;11.70;;
57309;SDS011;43153;50.984;18.204;2022-12-07T07:33:39;36.80;;;15.70;;
57309;SDS011;43153;50.984;18.204;2022-12-07T07:36:07;50.60;;;17.60;;
57309;SDS011;43153;50.984;18.204;2022-12-07T07:38:35;41.30;;;19.90;;
57309;SDS011;43153;50.984;18.204;2022-12-07T07:41:12;45.10;;;21.40;;
57309;SDS011;43153;50.984;18.204;2022-12-07T07:43:42;41.40;;;17.00;;
57309;SDS011;43153;50.984;18.204;2022-12-07T07:46:09;57.20;;;21.90;;
57309;SDS011;43153;50.984;18.204;2022-12-07T07:48:39;44.20;;;19.70;;
57309;SDS011;43153;50.984;18.204;2022-12-07T07:51:08;49.70;;;21.10;;
57309;SDS011;43153;50.984;18.204;2022-12-07T07:53:34;78.10;;;21.90;;
57309;SDS011;43153;50.984;18.204;2022-12-07T07:56:00;54.90;;;20.00;;
57309;SDS011;43153;50.984;18.204;2022-12-07T07:58:33;67.90;;;23.80;;
57309;SDS011;43153;50.984;18.204;2022-12-07T08:01:06;50.70;;;21.00;;
57309;SDS011;43153;50.984;18.204;2022-12-07T08:03:33;59.00;;;22.50;;
57309;SDS011;43153;50.984;18.204;2022-12-07T08:06:03;62.40;;;22.50;;
57309;SDS011;43153;50.984;18.204;2022-12-07T08:08:31;67.50;;;25.70;;
57309;SDS011;43153;50.984;18.204;2022-12-07T08:10:58;56.70;;;20.30;;
57309;SDS011;43153;50.984;18.204;2022-12-07T08:13:33;52.20;;;20.30;;
57309;SDS011;43153;50.984;18.204;2022-12-07T08:16:08;56.60;;;23.90;;
57309;SDS011;43153;50.984;18.204;2022-12-07T08:18:39;56.80;;;20.70;;
57309;SDS011;43153;50.984;18.204;2022-12-07T08:21:08;68.80;;;22.90;;
57309;SDS011;43153;50.984;18.204;2022-12-07T08:23:36;57.10;;;20.40;;
57309;SDS011;43153;50.984;18.204;2022-12-07T08:26:04;54.80;;;21.60;;
57309;SDS011;43153;50.984;18.204;2022-12-07T08:28:32;84.20;;;26.50;;
57309;SDS011;43153;50.984;18.204;2022-12-07T08:31:00;77.40;;;29.60;;
57309;SDS011;43153;50.984;18.204;2022-12-07T08:33:31;73.30;;;26.40;;
57309;SDS011;43153;50.984;18.204;2022-12-07T08:36:01;84.30;;;27.60;;
57309;SDS011;43153;50.984;18.204;2022-12-07T08:38:31;82.90;;;33.70;;
57309;SDS011;43153;50.984;18.204;2022-12-07T08:41:01;83.90;;;33.90;;
57309;SDS011;43153;50.984;18.204;2022-12-07T08:43:27;70.10;;;28.80;;
57309;SDS011;43153;50.984;18.204;2022-12-07T08:48:31;81.80;;;28.20;;
57309;SDS011;43153;50.984;18.204;2022-12-07T08:51:00;68.60;;;25.50;;
57309;SDS011;43153;50.984;18.204;2022-12-07T08:53:28;64.60;;;24.10;;
57309;SDS011;43153;50.984;18.204;2022-12-07T08:55:54;68.30;;;25.10;;
57309;SDS011;43153;50.984;18.204;2022-12-07T08:58:21;65.10;;;24.60;;
57309;SDS011;43153;50.984;18.204;2022-12-07T09:00:48;78.90;;;24.80;;
57309;SDS011;43153;50.984;18.204;2022-12-07T09:03:14;78.80;;;28.80;;
57309;SDS011;43153;50.984;18.204;2022-12-07T09:05:47;87.20;;;28.90;;
57309;SDS011;43153;50.984;18.204;2022-12-07T09:10:44;55.20;;;21.20;;
57309;SDS011;43153;50.984;18.204;2022-12-07T09:13:12;72.70;;;27.70;;
57309;SDS011;43153;50.984;18.204;2022-12-07T09:15:37;71.80;;;25.80;;
57309;SDS011;43153;50.984;18.204;2022-12-07T09:18:05;58.00;;;22.20;;
57309;SDS011;43153;50.984;18.204;2022-12-07T09:20:32;58.40;;;22.30;;
57309;SDS011;43153;50.984;18.204;2022-12-07T09:23:00;65.40;;;22.10;;
57309;SDS011;43153;50.984;18.204;2022-12-07T09:25:26;74.60;;;26.30;;
57309;SDS011;43153;50.984;18.204;2022-12-07T09:27:55;59.30;;;21.20;;
57309;SDS011;43153;50.984;18.204;2022-12-07T09:30:22;64.80;;;22.50;;
57309;SDS011;43153;50.984;18.204;2022-12-07T09:32:48;53.20;;;19.10;;
57309;SDS011;43153;50.984;18.204;2022-12-07T09:35:14;63.30;;;19.70;;
57309;SDS011;43153;50.984;18.204;2022-12-07T09:37:40;63.70;;;19.80;;
57309;SDS011;43153;50.984;18.204;2022-12-07T09:40:06;60.10;;;21.00;;
57309;SDS011;43153;50.984;18.204;2022-12-07T09:42:35;73.50;;;22.20;;
57309;SDS011;43153;50.984;18.204;2022-12-07T09:45:05;54.00;;;22.20;;
57309;SDS011;43153;50.984;18.204;2022-12-07T09:47:42;67.00;;;21.40;;
57309;SDS011;43153;50.984;18.204;2022-12-07T09:50:12;51.90;;;20.90;;
57309;SDS011;43153;50.984;18.204;2022-12-07T09:55:59;76.20;;;26.00;;
57309;SDS011;43153;50.984;18.204;2022-12-07T09:58:32;70.00;;;27.20;;
57309;SDS011;43153;50.984;18.204;2022-12-07T10:01:00;80.20;;;32.40;;
57309;SDS011;43153;50.984;18.204;2022-12-07T10:03:37;81.80;;;28.90;;
57309;SDS011;43153;50.984;18.204;2022-12-07T10:06:05;70.40;;;25.80;;
57309;SDS011;43153;50.984;18.204;2022-12-07T10:08:36;71.30;;;30.80;;
57309;SDS011;43153;50.984;18.204;2022-12-07T10:11:06;71.60;;;27.50;;
57309;SDS011;43153;50.984;18.204;2022-12-07T10:13:37;69.00;;;27.30;;
57309;SDS011;43153;50.984;18.204;2022-12-07T10:19:30;71.60;;;23.70;;
57309;SDS011;43153;50.984;18.204;2022-12-07T10:22:14;61.90;;;22.90;;
57309;SDS011;43153;50.984;18.204;2022-12-07T10:24:44;69.00;;;23.60;;
57309;SDS011;43153;50.984;18.204;2022-12-07T10:27:17;79.90;;;23.10;;
57309;SDS011;43153;50.984;18.204;2022-12-07T10:29:54;54.20;;;22.20;;
57309;SDS011;43153;50.984;18.204;2022-12-07T10:32:32;68.50;;;21.80;;
57309;SDS011;43153;50.984;18.204;2022-12-07T10:35:26;46.50;;;20.50;;
57309;SDS011;43153;50.984;18.204;2022-12-07T10:37:55;56.80;;;22.30;;
57309;SDS011;43153;50.984;18.204;2022-12-07T10:40:27;61.40;;;22.30;;
57309;SDS011;43153;50.984;18.204;2022-12-07T10:43:02;52.20;;;22.50;;
57309;SDS011;43153;50.984;18.204;2022-12-07T10:45:32;47.60;;;19.70;;
57309;SDS011;43153;50.984;18.204;2022-12-07T10:48:00;59.20;;;24.60;;
57309;SDS011;43153;50.984;18.204;2022-12-07T11:01:50;50.60;;;20.50;;
57309;SDS011;43153;50.984;18.204;2022-12-07T11:04:24;51.70;;;18.80;;
57309;SDS011;43153;50.984;18.204;2022-12-07T11:07:05;55.50;;;21.50;;
57309;SDS011;43153;50.984;18.204;2022-12-07T11:09:45;60.70;;;26.10;;
57309;SDS011;43153;50.984;18.204;2022-12-07T11:15:13;54.10;;;21.70;;
57309;SDS011;43153;50.984;18.204;2022-12-07T11:17:54;45.30;;;21.50;;
57309;SDS011;43153;50.984;18.204;2022-12-07T11:26:27;51.20;;;22.10;;
57309;SDS011;43153;50.984;18.204;2022-12-07T11:29:21;45.80;;;20.90;;
57309;SDS011;43153;50.984;18.204;2022-12-07T11:31:56;42.60;;;18.00;;
57309;SDS011;43153;50.984;18.204;2022-12-07T11:36:57;46.10;;;18.10;;
57309;SDS011;43153;50.984;18.204;2022-12-07T11:39:33;40.70;;;18.00;;
57309;SDS011;43153;50.984;18.204;2022-12-07T11:42:13;45.30;;;19.80;;
57309;SDS011;43153;50.984;18.204;2022-12-07T11:44:56;51.20;;;20.80;;
57309;SDS011;43153;50.984;18.204;2022-12-07T11:53:00;61.30;;;21.60;;
57309;SDS011;43153;50.984;18.204;2022-12-07T11:55:40;51.60;;;21.90;;
57309;SDS011;43153;50.984;18.204;2022-12-07T11:58:14;66.40;;;25.90;;
57309;SDS011;43153;50.984;18.204;2022-12-07T12:00:51;49.20;;;21.50;;
57309;SDS011;43153;50.984;18.204;2022-12-07T12:03:32;48.00;;;20.30;;
57309;SDS011;43153;50.984;18.204;2022-12-07T12:06:01;49.10;;;22.70;;
57309;SDS011;43153;50.984;18.204;2022-12-07T12:08:31;41.30;;;19.10;;
57309;SDS011;43153;50.984;18.204;2022-12-07T12:11:09;43.50;;;18.60;;
57309;SDS011;43153;50.984;18.204;2022-12-07T12:24:41;37.80;;;15.10;;
57309;SDS011;43153;50.984;18.204;2022-12-07T12:27:15;39.30;;;17.20;;
57309;SDS011;43153;50.984;18.204;2022-12-07T12:29:51;38.40;;;15.10;;
57309;SDS011;43153;50.984;18.204;2022-12-07T12:32:24;30.70;;;13.50;;
57309;SDS011;43153;50.984;18.204;2022-12-07T12:35:22;25.80;;;11.10;;
57309;SDS011;43153;50.984;18.204;2022-12-07T12:38:20;31.90;;;11.60;;
57309;SDS011;43153;50.984;18.204;2022-12-07T12:40:55;28.30;;;13.20;;
57309;SDS011;43153;50.984;18.204;2022-12-07T12:43:48;30.20;;;13.00;;
57309;SDS011;43153;50.984;18.204;2022-12-07T13:05:31;24.90;;;10.70;;
57309;SDS011;43153;50.984;18.204;2022-12-07T13:08:01;23.70;;;10.20;;
57309;SDS011;43153;50.984;18.204;2022-12-07T13:10:35;28.40;;;9.90;;
57309;SDS011;43153;50.984;18.204;2022-12-07T13:33:57;24.00;;;10.20;;
57309;SDS011;43153;50.984;18.204;2022-12-07T13:36:24;30.70;;;10.40;;
57309;SDS011;43153;50.984;18.204;2022-12-07T13:39:16;29.20;;;12.10;;
57309;SDS011;43153;50.984;18.204;2022-12-07T13:41:48;26.40;;;11.90;;
57309;SDS011;43153;50.984;18.204;2022-12-07T13:44:18;28.20;;;10.70;;
57309;SDS011;43153;50.984;18.204;2022-12-07T13:46:47;24.50;;;9.80;;
57309;SDS011;43153;50.984;18.204;2022-12-07T13:49:31;23.70;;;11.50;;
57309;SDS011;43153;50.984;18.204;2022-12-07T13:52:14;24.90;;;10.60;;
57309;SDS011;43153;50.984;18.204;2022-12-07T13:54:54;22.70;;;10.50;;
57309;SDS011;43153;50.984;18.204;2022-12-07T13:57:25;27.20;;;11.90;;
57309;SDS011;43153;50.984;18.204;2022-12-07T13:59:52;34.90;;;15.60;;
57309;SDS011;43153;50.984;18.204;2022-12-07T14:02:31;31.90;;;15.00;;
57309;SDS011;43153;50.984;18.204;2022-12-07T14:07:54;27.50;;;11.90;;
57309;SDS011;43153;50.984;18.204;2022-12-07T14:12:51;28.90;;;13.50;;
57309;SDS011;43153;50.984;18.204;2022-12-07T14:15:21;30.80;;;12.70;;
57309;SDS011;43153;50.984;18.204;2022-12-07T14:17:50;27.60;;;12.70;;
57309;SDS011;43153;50.984;18.204;2022-12-07T14:20:37;32.30;;;14.70;;
57309;SDS011;43153;50.984;18.204;2022-12-07T14:23:05;32.40;;;14.00;;
57309;SDS011;43153;50.984;18.204;2022-12-07T14:25:50;28.20;;;12.40;;
57309;SDS011;43153;50.984;18.204;2022-12-07T14:28:31;23.30;;;12.40;;
57309;SDS011;43153;50.984;18.204;2022-12-07T14:31:02;29.10;;;12.90;;
57309;SDS011;43153;50.984;18.204;2022-12-07T14:33:29;27.60;;;13.90;;
57309;SDS011;43153;50.984;18.204;2022-12-07T14:35:54;31.90;;;14.70;;
57309;SDS011;43153;50.984;18.204;2022-12-07T14:38:23;29.20;;;11.30;;
57309;SDS011;43153;50.984;18.204;2022-12-07T14:40:50;21.30;;;10.30;;
57309;SDS011;43153;50.984;18.204;2022-12-07T14:43:19;22.90;;;11.30;;
57309;SDS011;43153;50.984;18.204;2022-12-07T14:45:49;27.50;;;11.20;;
57309;SDS011;43153;50.984;18.204;2022-12-07T14:48:15;27.40;;;11.40;;
57309;SDS011;43153;50.984;18.204;2022-12-07T14:50:44;25.40;;;10.80;;
57309;SDS011;43153;50.984;18.204;2022-12-07T14:53:21;22.90;;;10.70;;
57309;SDS011;43153;50.984;18.204;2022-12-07T14:55:53;25.60;;;12.40;;
57309;SDS011;43153;50.984;18.204;2022-12-07T14:58:23;30.60;;;12.20;;
57309;SDS011;43153;50.984;18.204;2022-12-07T15:00:54;26.90;;;11.60;;
57309;SDS011;43153;50.984;18.204;2022-12-07T15:03:20;32.90;;;12.90;;
57309;SDS011;43153;50.984;18.204;2022-12-07T15:05:47;23.70;;;10.70;;
57309;SDS011;43153;50.984;18.204;2022-12-07T15:08:17;31.10;;;11.60;;
57309;SDS011;43153;50.984;18.204;2022-12-07T15:10:44;29.20;;;11.60;;
57309;SDS011;43153;50.984;18.204;2022-12-07T15:13:15;25.30;;;11.20;;
57309;SDS011;43153;50.984;18.204;2022-12-07T15:15:59;27.40;;;12.30;;
57309;SDS011;43153;50.984;18.204;2022-12-07T15:18:29;25.10;;;13.10;;
57309;SDS011;43153;50.984;18.204;2022-12-07T15:20:58;26.50;;;12.10;;
57309;SDS011;43153;50.984;18.204;2022-12-07T15:23:24;32.40;;;14.20;;
57309;SDS011;43153;50.984;18.204;2022-12-07T15:25:52;28.40;;;13.20;;
57309;SDS011;43153;50.984;18.204;2022-12-07T15:28:19;28.40;;;12.70;;
57309;SDS011;43153;50.984;18.204;2022-12-07T15:30:47;28.60;;;13.00;;
57309;SDS011;43153;50.984;18.204;2022-12-07T15:33:20;27.60;;;12.20;;
57309;SDS011;43153;50.984;18.204;2022-12-07T15:35:49;32.10;;;12.00;;
57309;SDS011;43153;50.984;18.204;2022-12-07T15:38:16;27.70;;;11.00;;
57309;SDS011;43153;50.984;18.204;2022-12-07T15:40:48;26.50;;;10.20;;
57309;SDS011;43153;50.984;18.204;2022-12-07T15:43:16;30.20;;;13.00;;
57309;SDS011;43153;50.984;18.204;2022-12-07T15:46:00;30.60;;;13.10;;
57309;SDS011;43153;50.984;18.204;2022-12-07T15:48:28;31.10;;;14.30;;
57309;SDS011;43153;50.984;18.204;2022-12-07T15:51:06;34.20;;;14.60;;
57309;SDS011;43153;50.984;18.204;2022-12-07T15:53:33;41.50;;;16.90;;
57309;SDS011;43153;50.984;18.204;2022-12-07T15:56:05;40.10;;;17.80;;
57309;SDS011;43153;50.984;18.204;2022-12-07T15:58:36;43.20;;;19.30;;
57309;SDS011;43153;50.984;18.204;2022-12-07T16:01:13;43.50;;;19.10;;
57309;SDS011;43153;50.984;18.204;2022-12-07T16:03:45;47.10;;;20.70;;
57309;SDS011;43153;50.984;18.204;2022-12-07T16:06:16;51.10;;;21.10;;
57309;SDS011;43153;50.984;18.204;2022-12-07T16:08:46;42.00;;;20.70;;
57309;SDS011;43153;50.984;18.204;2022-12-07T16:11:13;43.60;;;20.80;;
57309;SDS011;43153;50.984;18.204;2022-12-07T16:13:41;37.50;;;16.90;;
57309;SDS011;43153;50.984;18.204;2022-12-07T16:16:09;41.20;;;16.90;;
57309;SDS011;43153;50.984;18.204;2022-12-07T16:18:44;27.30;;;13.30;;
57309;SDS011;43153;50.984;18.204;2022-12-07T16:21:11;27.90;;;13.70;;
57309;SDS011;43153;50.984;18.204;2022-12-07T16:23:37;27.70;;;14.20;;
57309;SDS011;43153;50.984;18.204;2022-12-07T16:26:19;26.30;;;12.60;;
57309;SDS011;43153;50.984;18.204;2022-12-07T16:28:48;24.70;;;12.70;;
57309;SDS011;43153;50.984;18.204;2022-12-07T16:31:16;29.50;;;11.60;;
57309;SDS011;43153;50.984;18.204;2022-12-07T16:33:47;27.70;;;12.20;;
57309;SDS011;43153;50.984;18.204;2022-12-07T16:36:14;45.70;;;16.70;;
57309;SDS011;43153;50.984;18.204;2022-12-07T16:38:43;33.10;;;13.80;;
57309;SDS011;43153;50.984;18.204;2022-12-07T16:41:09;33.50;;;15.10;;
57309;SDS011;43153;50.984;18.204;2022-12-07T16:43:38;40.50;;;17.80;;
57309;SDS011;43153;50.984;18.204;2022-12-07T16:46:04;42.50;;;16.60;;
57309;SDS011;43153;50.984;18.204;2022-12-07T16:48:31;40.30;;;15.60;;